Terminal Aerodrome Forecast
Issued by NWS

Home | Current Version | Previous Version | Text Only | Print | Product List | Glossary On
Versions: 1 2 3 4 5 6 7 8 9 10 11 12 13 14 15 16 17 18 19
000
FTUS41 KBGM 300500
TAFITH
TAF
KITH 300535Z 3006/3106 21008KT 3SM -SHSN OVC015
      TEMPO 3006/3008 2SM -SHSN
     FM300900 30012G22KT 4SM -SHSN SCT008 OVC015
      TEMPO 3009/3013 2SM -SHSN OVC008
     FM301300 32015G25KT 2SM -SHSN OVC012
     FM301800 32015G28KT 5SM -SHSN OVC015
     FM310000 31012G22KT P6SM -SHSN BKN025=

USA.gov is the U.S. government's official web portal to all federal, state and local government web resources and services.